Time;durP1;ratioP1;P1;durP2;ratioP2;P2;SDS_P1;SDS_P2;PMS_P1;PMS_P2;Temp;Humidity;BMP_temperature;BMP_pressure;BME280_temperature;BME280_humidity;BME280_pressure;Samples;Min_cycle;Max_cycle;Signal;HPM_P1;HPM_P2
2021/07/25 00:00:45;;;;;;;11.43;4.07;;;;;;;17.47;70.93;100937.09;1730261;81;21203;-71
2021/07/25 00:03:19;;;;;;;14.93;4.85;;;;;;;17.44;71.06;100944.52;1726692;81;21214;-71
2021/07/25 00:05:52;;;;;;;11.93;4.60;;;;;;;17.40;71.28;100944.52;1753792;81;21197;-71
2021/07/25 00:08:26;;;;;;;15.28;4.72;;;;;;;17.36;71.55;100950.62;1740167;81;21327;-71
2021/07/25 00:10:59;;;;;;;19.15;5.37;;;;;;;17.34;71.71;100946.48;1735814;81;21175;-71
2021/07/25 00:13:36;;;;;;;;;;;;;;;17.31;71.92;100950.80;1732439;81;21245;-71
2021/07/25 00:16:07;;;;;;;11.63;4.17;;;;;;;17.27;72.04;100958.70;1726180;81;20610;-72
2021/07/25 00:18:41;;;;;;;16.93;4.70;;;;;;;17.21;72.22;100952.27;1747079;81;21196;-71
2021/07/25 00:21:14;;;;;;;6.43;3.40;;;;;;;17.18;72.29;100964.98;1731390;81;21171;-71
2021/07/25 00:23:50;;;;;;;7.53;4.35;;;;;;;17.09;72.05;100966.78;1740575;81;21208;-71
2021/07/25 00:26:27;;;;;;;10.40;3.90;;;;;;;17.00;72.01;100966.91;1732774;81;21294;-71
2021/07/25 00:29:00;;;;;;;8.68;4.40;;;;;;;16.98;72.05;100974.19;1730067;81;21218;-71
2021/07/25 00:31:34;;;;;;;10.18;4.30;;;;;;;16.93;71.98;100975.16;1744706;81;21283;-71
2021/07/25 00:34:08;;;;;;;14.13;4.15;;;;;;;16.89;72.07;100974.63;1734188;81;21176;-71
2021/07/25 00:36:41;;;;;;;11.23;4.20;;;;;;;16.84;72.32;100983.05;1753959;81;21291;-73
2021/07/25 00:39:14;;;;;;;9.38;4.28;;;;;;;16.82;72.58;100988.98;1745443;81;21168;-71
2021/07/25 00:41:47;;;;;;;12.33;3.30;;;;;;;16.80;72.65;100986.16;1747497;81;21215;-72
2021/07/25 00:44:20;;;;;;;8.78;4.42;;;;;;;16.76;72.83;100984.34;1745219;81;21282;-71
2021/07/25 00:47:01;;;;;;;12.68;4.33;;;;;;;16.74;72.93;100981.00;1726036;81;21234;-71
2021/07/25 00:49:34;;;;;;;12.30;4.35;;;;;;;16.74;73.01;100985.49;1727532;81;21727;-71
2021/07/25 00:52:08;;;;;;;10.10;3.87;;;;;;;16.71;73.08;100983.98;1683703;81;21287;-71
2021/07/25 00:54:41;;;;;;;6.78;3.90;;;;;;;16.70;73.16;100986.28;1726085;81;21562;-71
2021/07/25 00:57:14;;;;;;;18.05;4.30;;;;;;;16.69;73.25;100984.61;1730322;81;21268;-71
2021/07/25 00:59:48;;;;;;;10.38;3.92;;;;;;;16.69;73.36;100985.94;1754215;81;21375;-71
2021/07/25 01:02:21;;;;;;;18.95;4.25;;;;;;;16.69;73.38;100987.78;1746837;81;21290;-71
2021/07/25 01:05:05;;;;;;;14.15;4.00;;;;;;;16.66;73.42;100987.59;1735023;81;21385;-71
2021/07/25 01:07:45;;;;;;;10.93;4.00;;;;;;;16.63;73.31;100998.48;1743417;81;21243;-71
2021/07/25 01:10:24;;;;;;;10.28;4.00;;;;;;;16.60;73.28;100993.98;1754248;81;21318;-71
2021/07/25 01:13:09;;;;;;;8.53;3.60;;;;;;;16.57;73.28;100997.80;1754648;81;21310;-72
2021/07/25 01:15:42;;;;;;;15.55;3.70;;;;;;;16.57;73.29;100991.67;1725469;81;21278;-72
2021/07/25 01:18:15;;;;;;;12.27;4.00;;;;;;;16.56;73.29;101001.90;1697925;81;21291;-72
2021/07/25 01:20:48;;;;;;;8.73;3.17;;;;;;;16.54;73.28;101000.74;1734307;81;21172;-72
2021/07/25 01:23:21;;;;;;;10.25;4.45;;;;;;;16.53;73.35;100996.43;1743102;81;21199;-72
2021/07/25 01:25:58;;;;;;;8.70;3.80;;;;;;;16.51;73.24;101002.37;1754598;81;21286;-72
2021/07/25 01:28:37;;;;;;;13.75;4.37;;;;;;;16.49;73.16;100999.52;1752529;81;21351;-72
2021/07/25 01:31:17;;;;;;;12.90;4.12;;;;;;;16.46;73.12;100998.49;1754360;81;21331;-71
2021/07/25 01:33:50;;;;;;;11.30;4.35;;;;;;;16.43;73.03;100998.31;1739163;81;21283;-71
2021/07/25 01:36:23;;;;;;;10.95;3.55;;;;;;;16.33;72.78;100996.29;1735807;81;21373;-71
2021/07/25 01:38:56;;;;;;;11.50;3.60;;;;;;;16.26;72.82;100997.89;1740336;81;21279;-71
2021/07/25 01:41:29;;;;;;;14.70;4.47;;;;;;;16.22;72.88;101002.29;1720628;81;21291;-71
2021/07/25 01:44:03;;;;;;;12.03;4.25;;;;;;;16.21;72.87;101002.80;1742470;81;21188;-71
2021/07/25 01:46:36;;;;;;;8.95;3.98;;;;;;;16.21;72.72;101011.22;1744952;81;21165;-71
2021/07/25 01:49:09;;;;;;;9.88;3.83;;;;;;;16.15;72.59;101006.88;1749084;81;21342;-71
2021/07/25 01:51:43;;;;;;;7.13;3.87;;;;;;;16.13;72.68;101010.17;1734285;81;21234;-71
2021/07/25 01:54:16;;;;;;;10.98;3.98;;;;;;;16.14;72.74;101013.66;1742044;81;21805;-71
2021/07/25 01:56:49;;;;;;;10.13;3.75;;;;;;;16.14;72.74;101012.33;1749147;81;21346;-71
2021/07/25 01:59:22;;;;;;;11.73;4.05;;;;;;;16.16;72.83;101015.64;1754151;81;21243;-71
2021/07/25 02:01:55;;;;;;;11.90;2.98;;;;;;;16.19;72.78;101017.47;1740343;81;21273;-71
2021/07/25 02:04:28;;;;;;;10.38;4.47;;;;;;;16.24;72.68;101016.20;1735510;81;21313;-71
2021/07/25 02:07:01;;;;;;;15.18;4.65;;;;;;;16.27;72.66;101023.31;1736296;81;21282;-71
2021/07/25 02:09:36;;;;;;;17.30;4.80;;;;;;;16.27;72.57;101019.83;1730067;81;21191;-71
2021/07/25 02:12:11;;;;;;;16.52;4.30;;;;;;;16.31;72.66;101023.33;1730215;81;21281;-71
2021/07/25 02:14:44;;;;;;;11.97;3.75;;;;;;;16.37;72.65;101021.89;1741979;81;21179;-71
2021/07/25 02:17:17;;;;;;;20.15;4.70;;;;;;;16.42;72.51;101023.59;1739994;81;21157;-71
2021/07/25 02:19:50;;;;;;;12.78;4.33;;;;;;;16.47;72.44;101023.47;1734098;81;21354;-71
2021/07/25 02:22:23;;;;;;;13.90;4.20;;;;;;;16.51;72.39;101023.97;1735274;81;21290;-72
2021/07/25 02:24:57;;;;;;;12.95;4.12;;;;;;;16.55;72.26;101026.17;1734261;81;21793;-71
2021/07/25 02:27:30;;;;;;;10.27;4.03;;;;;;;16.58;72.14;101019.27;1742167;81;21274;-71
2021/07/25 02:30:03;;;;;;;17.45;4.70;;;;;;;16.62;72.00;101024.56;1755030;82;22512;-71
2021/07/25 02:32:36;;;;;;;15.72;4.00;;;;;;;16.64;71.80;101019.98;1730252;81;21199;-71
2021/07/25 02:35:10;;;;;;;16.05;4.42;;;;;;;16.69;71.71;101024.27;1743379;81;21322;-71
2021/07/25 02:37:43;;;;;;;11.35;4.70;;;;;;;16.77;71.62;101024.81;1745997;80;21271;-71
2021/07/25 02:40:16;;;;;;;21.95;5.33;;;;;;;16.86;71.52;101025.70;1740013;81;21279;-71
2021/07/25 02:42:49;;;;;;;16.60;5.07;;;;;;;16.97;71.38;101029.38;1730858;81;21275;-71
2021/07/25 02:45:22;;;;;;;;;;;;;;;17.07;71.11;101030.94;1746561;81;21222;-71
2021/07/25 02:47:55;;;;;;;19.95;4.53;;;;;;;17.18;70.81;101035.09;1748485;81;20177;-70
2021/07/25 02:50:28;;;;;;;11.78;4.45;;;;;;;17.27;70.58;101037.61;1754248;81;21283;-70
2021/07/25 02:53:02;;;;;;;7.10;4.08;;;;;;;17.40;70.25;101041.97;1733705;81;21183;-70
2021/07/25 02:55:35;;;;;;;18.35;4.67;;;;;;;17.55;69.89;101047.50;1741542;81;21274;-69
2021/07/25 02:58:08;;;;;;;12.78;4.25;;;;;;;17.67;69.52;101046.21;1741025;81;21258;-69
2021/07/25 03:00:41;;;;;;;12.68;4.80;;;;;;;17.80;69.14;101049.69;1738347;81;21979;-70
2021/07/25 03:03:14;;;;;;;9.83;4.37;;;;;;;17.91;68.86;101053.36;1730141;81;21361;-71
2021/07/25 03:05:48;;;;;;;6.92;4.85;;;;;;;18.03;68.74;101052.05;1744560;81;21830;-70
2021/07/25 03:08:21;;;;;;;14.13;5.00;;;;;;;18.15;68.44;101057.33;1732982;81;21207;-70
2021/07/25 03:10:54;;;;;;;;;;;;;;;18.30;68.12;101064.95;1747374;81;21152;-70
2021/07/25 03:13:26;;;;;;;11.18;4.62;;;;;;;18.45;67.94;101071.25;1730333;81;20165;-70
2021/07/25 03:16:07;;;;;;;;;;;;;;;18.59;67.86;101071.94;1747438;81;21151;-71
2021/07/25 03:18:40;;;;;;;14.20;5.33;;;;;;;18.76;67.73;101070.08;1753077;82;20229;-71
2021/07/25 03:21:13;;;;;;;;;;;;;;;18.90;67.69;101070.70;1740236;81;21156;-71
2021/07/25 03:23:46;;;;;;;14.68;4.67;;;;;;;19.04;67.65;101069.16;1740142;81;20626;-71
2021/07/25 03:26:19;;;;;;;10.72;4.78;;;;;;;19.18;67.61;101073.75;1746993;81;21295;-71
2021/07/25 03:28:52;;;;;;;12.18;5.03;;;;;;;19.33;67.44;101072.88;1748377;81;21322;-71
2021/07/25 03:31:25;;;;;;;13.00;4.97;;;;;;;19.48;67.24;101083.63;1739585;81;21263;-71
2021/07/25 03:33:59;;;;;;;8.75;4.70;;;;;;;19.60;67.12;101084.06;1753352;81;21776;-70
2021/07/25 03:36:32;;;;;;;17.48;5.00;;;;;;;19.76;66.97;101089.28;1743568;81;21350;-70
2021/07/25 03:39:08;;;;;;;8.63;4.85;;;;;;;20.05;66.58;101078.30;1729010;81;21175;-71
2021/07/25 03:41:42;;;;;;;11.63;5.05;;;;;;;20.50;65.81;101084.10;1717139;81;21279;-69
2021/07/25 03:44:15;;;;;;;7.40;4.73;;;;;;;20.98;64.66;101085.45;1732690;80;21160;-69
2021/07/25 03:46:48;;;;;;;8.13;4.77;;;;;;;21.40;63.30;101087.46;1737534;81;21223;-67
2021/07/25 03:49:21;;;;;;;13.15;5.55;;;;;;;21.72;62.36;101088.88;1753334;81;21364;-66
2021/07/25 03:51:54;;;;;;;;;;;;;;;22.17;61.06;101084.55;1756835;81;21294;-67
2021/07/25 03:54:27;;;;;;;10.85;5.40;;;;;;;22.64;59.55;101080.77;1732870;81;20176;-67
2021/07/25 03:57:00;;;;;;;;;;;;;;;23.09;58.34;101087.95;1754378;81;21678;-67
2021/07/25 03:59:32;;;;;;;9.23;5.45;;;;;;;23.62;56.78;101086.38;1731911;81;20200;-68
2021/07/25 04:02:06;;;;;;;10.95;6.22;;;;;;;24.12;55.39;101097.11;1725971;81;21184;-69
2021/07/25 04:04:39;;;;;;;14.03;6.62;;;;;;;24.58;53.84;101087.23;1750626;81;21282;-68
2021/07/25 04:07:12;;;;;;;11.55;6.22;;;;;;;25.11;52.57;101090.67;1737564;81;21275;-69
2021/07/25 04:09:45;;;;;;;10.30;6.30;;;;;;;25.64;51.22;101089.47;1729034;81;21168;-69
2021/07/25 04:12:17;;;;;;;9.85;5.80;;;;;;;26.18;49.77;101093.48;1737188;81;21298;-69
2021/07/25 04:14:53;;;;;;;13.48;5.90;;;;;;;26.67;48.46;101090.83;1731390;81;21176;-69
2021/07/25 04:17:26;;;;;;;9.68;5.37;;;;;;;27.13;47.06;101093.88;1742646;81;21377;-69
2021/07/25 04:19:58;;;;;;;9.55;5.03;;;;;;;27.62;45.90;101099.62;1742164;81;21275;-69
2021/07/25 04:22:36;;;;;;;8.50;5.17;;;;;;;28.08;44.62;101094.97;1731197;81;21313;-70
2021/07/25 04:25:09;;;;;;;9.15;4.53;;;;;;;28.53;43.63;101092.58;1697585;81;21280;-70
2021/07/25 04:27:42;;;;;;;11.25;4.20;;;;;;;29.04;42.44;101095.94;1743292;81;21271;-70
2021/07/25 04:30:16;;;;;;;7.85;4.30;;;;;;;29.53;41.21;101101.29;1746660;81;21718;-70
2021/07/25 04:32:50;;;;;;;10.88;4.50;;;;;;;30.00;40.33;101100.05;1740893;81;21830;-71
2021/07/25 04:35:24;;;;;;;13.20;4.55;;;;;;;30.46;39.19;101107.91;1747820;81;21278;-71
2021/07/25 04:37:57;;;;;;;5.28;3.83;;;;;;;30.81;38.30;101103.55;1726007;81;21274;-71
2021/07/25 04:40:30;;;;;;;6.50;3.83;;;;;;;31.17;37.19;101099.48;1748855;81;21207;-71
2021/07/25 04:43:03;;;;;;;;;;;;;;;31.60;36.11;101100.05;1741752;81;21760;-71
2021/07/25 04:45:53;;;;;;;7.47;4.40;;;;;;;31.93;35.31;101101.21;1748651;81;20265;-71
2021/07/25 04:48:42;;;;;;;8.75;4.17;;;;;;;32.24;34.90;101105.86;1729768;81;21330;-71
2021/07/25 04:51:16;;;;;;;7.92;4.35;;;;;;;32.72;34.16;101101.36;1730582;81;21274;-71
2021/07/25 04:53:52;;;;;;;12.68;4.78;;;;;;;33.20;33.03;101098.37;1747331;81;21317;-70
2021/07/25 04:56:24;;;;;;;8.40;4.55;;;;;;;33.55;32.67;101088.23;1733770;81;21279;-70
2021/07/25 04:59:05;;;;;;;;;;;;;;;33.96;32.18;101104.06;1755528;81;21334;-70
2021/07/25 05:01:38;;;;;;;13.68;5.45;;;;;;;34.40;31.37;101102.47;1725910;81;20181;-69
2021/07/25 05:04:12;;;;;;;19.75;7.75;;;;;;;34.75;30.81;101097.57;1753317;81;21779;-68
2021/07/25 05:06:45;;;;;;;17.67;7.95;;;;;;;35.13;29.99;101098.30;1743485;81;21283;-69
2021/07/25 05:09:21;;;;;;;13.55;6.20;;;;;;;35.49;29.46;101100.31;1728403;81;21183;-69
2021/07/25 05:12:09;;;;;;;9.60;5.30;;;;;;;35.87;28.94;101099.56;1746376;81;21171;-68
2021/07/25 05:14:55;;;;;;;8.80;4.62;;;;;;;36.27;28.53;101103.91;1736851;81;21212;-69
2021/07/25 05:18:07;;;;;;;9.93;4.75;;;;;;;36.69;27.89;101110.89;1719421;81;21271;-70
2021/07/25 05:21:26;;;;;;;5.60;3.90;;;;;;;37.06;27.32;101112.44;1732228;81;21198;-71
2021/07/25 05:24:01;;;;;;;9.93;4.65;;;;;;;37.49;26.78;101115.20;1732358;81;21165;-70
2021/07/25 05:26:34;;;;;;;6.53;4.00;;;;;;;37.90;26.02;101119.00;1710562;81;21215;-70
2021/07/25 05:29:09;;;;;;;5.30;4.15;;;;;;;38.26;25.57;101119.25;1740176;81;21290;-71
2021/07/25 05:31:43;;;;;;;6.62;4.08;;;;;;;38.63;25.10;101117.78;1753368;81;21711;-70
2021/07/25 05:34:16;;;;;;;8.45;4.05;;;;;;;38.99;24.69;101111.91;1713135;81;21850;-71
2021/07/25 05:36:49;;;;;;;7.25;4.05;;;;;;;39.29;24.40;101116.55;1742015;81;21374;-71
2021/07/25 05:39:22;;;;;;;13.10;4.45;;;;;;;39.50;24.12;101110.88;1738260;81;21183;-71
2021/07/25 05:41:55;;;;;;;7.87;4.45;;;;;;;39.71;23.54;101107.95;1739090;81;21183;-71
2021/07/25 05:44:30;;;;;;;5.83;3.80;;;;;;;39.98;23.20;101107.04;1737578;81;21239;-71
2021/07/25 05:47:03;;;;;;;6.87;3.83;;;;;;;40.22;23.00;101106.98;1755148;81;21207;-71
2021/07/25 05:49:36;;;;;;;4.72;4.00;;;;;;;40.47;22.39;101105.55;1751764;81;21184;-71
2021/07/25 05:52:10;;;;;;;10.65;3.70;;;;;;;40.64;22.19;101106.20;1727776;81;21274;-71
2021/07/25 05:54:43;;;;;;;5.50;3.47;;;;;;;40.87;21.88;101100.91;1738067;81;21271;-71
2021/07/25 05:57:16;;;;;;;7.15;3.80;;;;;;;41.12;21.52;101099.38;1729822;81;21223;-71
2021/07/25 05:59:49;;;;;;;7.75;3.83;;;;;;;41.44;21.08;101098.99;1742136;81;21266;-71
2021/07/25 06:02:22;;;;;;;5.03;3.90;;;;;;;41.76;20.65;101101.84;1745046;81;21259;-70
2021/07/25 06:04:56;;;;;;;13.22;4.17;;;;;;;41.96;20.37;101103.95;1751880;81;21699;-71
2021/07/25 06:07:29;;;;;;;13.93;4.47;;;;;;;42.22;20.23;101100.05;1730953;81;21306;-71
2021/07/25 06:10:02;;;;;;;8.78;3.62;;;;;;;42.48;20.06;101105.48;1737477;81;21220;-71
2021/07/25 06:12:37;;;;;;;7.85;3.50;;;;;;;42.67;19.58;101104.55;1747244;81;21878;-71
2021/07/25 06:15:11;;;;;;;5.95;3.45;;;;;;;42.70;19.78;101101.70;1726750;81;21294;-71
2021/07/25 06:17:45;;;;;;;7.75;3.77;;;;;;;42.82;18.84;101102.63;1740599;81;21207;-70
2021/07/25 06:20:18;;;;;;;5.97;3.25;;;;;;;42.81;19.06;101105.13;1727232;81;21777;-70
2021/07/25 06:22:53;;;;;;;5.20;3.42;;;;;;;43.04;19.15;101107.05;1741101;81;21230;-71
2021/07/25 06:25:29;;;;;;;8.93;4.00;;;;;;;43.14;18.58;101106.67;1729997;81;21187;-71
2021/07/25 06:28:04;;;;;;;4.45;3.30;;;;;;;43.08;18.62;101110.78;1752187;81;21156;-71
2021/07/25 06:30:37;;;;;;;4.95;3.60;;;;;;;43.12;18.78;101110.34;1746666;81;21274;-70
2021/07/25 06:33:11;;;;;;;4.83;3.35;;;;;;;43.39;18.55;101114.58;1742644;81;21187;-71
2021/07/25 06:35:44;;;;;;;8.15;3.60;;;;;;;43.58;18.17;101115.48;1747958;80;21865;-71
2021/07/25 06:38:18;;;;;;;5.55;3.42;;;;;;;43.82;18.07;101121.98;1730572;82;21276;-71
2021/07/25 06:40:55;;;;;;;5.78;3.37;;;;;;;44.11;17.61;101115.00;1729629;81;21298;-71
2021/07/25 06:43:27;;;;;;;7.95;3.65;;;;;;;44.31;17.62;101122.19;1723374;82;21197;-71
2021/07/25 06:46:02;;;;;;;9.10;3.80;;;;;;;44.41;17.02;101125.30;1731214;82;21195;-71
2021/07/25 06:48:35;;;;;;;3.98;3.25;;;;;;;44.53;16.87;101119.83;1733254;81;21374;-72
2021/07/25 06:51:08;;;;;;;6.72;3.47;;;;;;;44.69;16.70;101123.52;1732222;82;21354;-71
2021/07/25 06:53:43;;;;;;;4.87;3.05;;;;;;;44.88;16.44;101123.58;1733413;82;21205;-71
2021/07/25 06:56:16;;;;;;;6.55;3.20;;;;;;;45.15;16.01;101128.38;1733609;81;21896;-71
2021/07/25 06:58:49;;;;;;;3.67;3.00;;;;;;;45.39;15.47;101125.61;1732063;81;21960;-71
2021/07/25 07:01:22;;;;;;;7.62;3.35;;;;;;;45.65;15.24;101133.52;1732003;82;21914;-71
2021/07/25 07:03:55;;;;;;;5.10;2.85;;;;;;;45.69;14.68;101128.92;1733408;81;21944;-71
2021/07/25 07:06:27;;;;;;;5.40;3.58;;;;;;;45.63;14.48;101125.58;1733899;81;21291;-68
2021/07/25 07:09:00;;;;;;;4.00;2.87;;;;;;;45.65;14.81;101132.95;1735358;81;21309;-68
2021/07/25 07:11:34;;;;;;;6.65;2.87;;;;;;;45.77;14.22;101126.56;1734272;82;21294;-68
2021/07/25 07:14:08;;;;;;;5.85;3.08;;;;;;;45.75;14.53;101129.70;1734903;82;21167;-68
2021/07/25 07:16:41;;;;;;;3.12;2.80;;;;;;;45.45;14.69;101126.40;1734825;81;21211;-68
2021/07/25 07:19:14;;;;;;;6.08;3.17;;;;;;;45.27;15.01;101125.64;1733374;81;21290;-68
2021/07/25 07:21:48;;;;;;;5.65;2.83;;;;;;;45.27;14.96;101127.02;1734005;82;21279;-70
2021/07/25 07:24:21;;;;;;;7.20;3.00;;;;;;;45.34;15.15;101128.05;1734640;81;21733;-70
2021/07/25 07:26:54;;;;;;;5.78;2.65;;;;;;;45.67;14.65;101128.47;1735059;82;21262;-69
2021/07/25 07:29:27;;;;;;;3.52;2.52;;;;;;;45.80;13.68;101128.06;1734869;82;21311;-70
2021/07/25 07:32:00;;;;;;;5.92;2.80;;;;;;;46.04;13.26;101129.95;1732854;81;21228;-70
2021/07/25 07:34:33;;;;;;;5.15;2.60;;;;;;;46.28;13.17;101128.44;1734586;81;21330;-69
2021/07/25 07:37:06;;;;;;;7.65;2.60;;;;;;;46.74;12.90;101130.47;1735293;82;21273;-69
2021/07/25 07:39:40;;;;;;;5.80;2.70;;;;;;;47.24;12.41;101126.95;1735170;82;21175;-69
2021/07/25 07:42:13;;;;;;;5.25;2.77;;;;;;;47.61;11.87;101121.82;1733154;81;21278;-70
2021/07/25 07:44:46;;;;;;;5.60;2.30;;;;;;;47.78;11.53;101123.35;1735005;81;21695;-69
2021/07/25 07:47:19;;;;;;;6.42;2.83;;;;;;;47.91;11.84;101129.02;1734994;81;21266;-69
2021/07/25 07:49:53;;;;;;;5.10;2.87;;;;;;;47.99;11.51;101127.38;1732522;82;21276;-69
2021/07/25 07:52:26;;;;;;;4.80;2.80;;;;;;;47.86;11.43;101126.53;1733754;81;21314;-69
2021/07/25 07:54:59;;;;;;;5.90;2.42;;;;;;;47.74;11.80;101126.65;1734875;82;22091;-69
2021/07/25 07:57:32;;;;;;;3.02;2.40;;;;;;;47.78;11.56;101124.73;1728395;81;21864;-69
2021/07/25 08:00:09;;;;;;;5.65;2.80;;;;;;;47.82;11.59;101130.61;1733199;82;21184;-69
2021/07/25 08:02:46;;;;;;;3.80;2.58;;;;;;;47.89;11.39;101127.19;1733478;82;21284;-68
2021/07/25 08:05:20;;;;;;;4.15;2.50;;;;;;;47.82;11.81;101131.99;1733534;81;21218;-69
2021/07/25 08:07:53;;;;;;;7.72;2.80;;;;;;;47.67;11.70;101128.70;1735173;82;21309;-69
2021/07/25 08:10:26;;;;;;;6.65;2.95;;;;;;;47.49;11.88;101122.53;1733032;82;21774;-68
2021/07/25 08:12:59;;;;;;;5.08;3.45;;;;;;;47.38;11.95;101127.27;1733899;81;21180;-68
2021/07/25 08:15:32;;;;;;;4.78;2.72;;;;;;;47.31;11.94;101124.34;1733896;81;21267;-69
2021/07/25 08:18:08;;;;;;;4.80;2.90;;;;;;;47.20;12.21;101126.05;1734378;82;21850;-69
2021/07/25 08:20:41;;;;;;;4.17;2.85;;;;;;;47.09;12.26;101129.17;1734571;81;21270;-68
2021/07/25 08:23:14;;;;;;;4.12;2.77;;;;;;;46.81;12.33;101124.31;1734540;81;21159;-70
2021/07/25 08:25:48;;;;;;;6.78;2.67;;;;;;;46.73;12.39;101119.75;1734498;81;21349;-69
2021/07/25 08:28:21;;;;;;;4.35;2.50;;;;;;;46.60;12.52;101129.30;1733744;81;21169;-68
2021/07/25 08:30:54;;;;;;;9.80;2.70;;;;;;;46.47;12.87;101127.77;1732927;81;21814;-68
2021/07/25 08:33:27;;;;;;;4.55;2.52;;;;;;;46.36;12.83;101138.55;1734799;82;21246;-68
2021/07/25 08:36:02;;;;;;;6.87;2.60;;;;;;;46.16;12.83;101129.08;1734731;82;21180;-68
2021/07/25 08:38:35;;;;;;;4.10;2.40;;;;;;;45.88;12.66;101136.00;1732933;81;21814;-67
2021/07/25 08:41:15;;;;;;;3.02;2.42;;;;;;;45.68;12.70;101135.59;1733195;81;21347;-68
2021/07/25 08:43:48;;;;;;;4.10;2.60;;;;;;;45.67;12.73;101137.55;1733274;81;21275;-68
2021/07/25 08:46:22;;;;;;;4.95;2.60;;;;;;;45.48;12.76;101130.42;1733231;82;21329;-68
2021/07/25 08:48:55;;;;;;;4.33;2.67;;;;;;;45.31;13.03;101130.72;1734505;81;21726;-67
2021/07/25 08:51:28;;;;;;;4.25;2.60;;;;;;;45.29;12.92;101120.55;1735197;82;21825;-68
2021/07/25 08:54:03;;;;;;;4.75;2.30;;;;;;;45.19;12.78;101112.73;1735155;82;21282;-67
2021/07/25 08:56:36;;;;;;;5.35;2.50;;;;;;;45.06;12.94;101121.61;1732857;81;21252;-68
2021/07/25 08:59:11;;;;;;;5.12;2.42;;;;;;;44.90;13.09;101124.84;1733514;81;21260;-67
2021/07/25 09:01:44;;;;;;;3.55;2.17;;;;;;;44.65;13.47;101123.17;1734259;81;21153;-67
2021/07/25 09:04:17;;;;;;;3.17;2.50;;;;;;;44.52;13.15;101125.70;1734799;81;21359;-67
2021/07/25 09:06:51;;;;;;;6.30;2.70;;;;;;;44.32;13.06;101128.73;1734080;82;21367;-66
2021/07/25 09:09:25;;;;;;;6.47;2.45;;;;;;;44.06;13.07;101122.08;1735686;82;21282;-66
2021/07/25 09:11:58;;;;;;;4.50;2.35;;;;;;;43.55;13.35;101125.23;1734701;82;21325;-66
2021/07/25 09:14:32;;;;;;;5.12;2.55;;;;;;;43.01;14.25;101128.41;1733866;81;21313;-66
2021/07/25 09:17:05;;;;;;;3.85;2.62;;;;;;;42.75;14.27;101121.59;1733651;81;21355;-66
2021/07/25 09:20:15;;;;;;;4.55;2.42;;;;;;;42.41;14.95;101124.45;1713803;82;21329;-66
2021/07/25 09:22:58;;;;;;;5.25;2.22;;;;;;;42.19;15.26;101129.59;1734677;81;21271;-66
2021/07/25 09:25:35;;;;;;;4.78;2.60;;;;;;;42.01;15.08;101121.08;1735119;82;21179;-67
2021/07/25 09:28:13;;;;;;;6.45;2.80;;;;;;;41.91;15.44;101124.74;1729971;82;21864;-68
2021/07/25 09:30:46;;;;;;;5.08;2.67;;;;;;;41.83;15.02;101124.98;1735048;82;21291;-67
2021/07/25 09:33:24;;;;;;;6.50;2.75;;;;;;;41.29;15.25;101115.94;1731063;81;21295;-66
2021/07/25 09:36:06;;;;;;;6.78;2.72;;;;;;;40.77;15.66;101117.66;1713458;81;21314;-67
2021/07/25 09:38:41;;;;;;;10.05;3.00;;;;;;;40.35;16.33;101114.34;1732611;81;21345;-66
2021/07/25 09:41:26;;;;;;;6.25;2.67;;;;;;;40.07;16.80;101113.42;1743864;81;21907;-66
2021/07/25 09:44:12;;;;;;;4.30;2.80;;;;;;;39.64;16.87;101119.34;1739526;81;21222;-66
2021/07/25 09:46:49;;;;;;;5.80;3.10;;;;;;;39.04;17.63;101126.06;1737482;81;21278;-66
2021/07/25 09:49:22;;;;;;;8.68;2.90;;;;;;;38.53;17.89;101128.91;1740876;81;21173;-66
2021/07/25 09:51:55;;;;;;;5.55;2.70;;;;;;;38.01;18.34;101127.84;1745378;81;21766;-65
2021/07/25 09:54:28;;;;;;;3.92;2.80;;;;;;;37.55;18.72;101132.58;1734792;81;21730;-65
2021/07/25 09:57:12;;;;;;;9.75;3.08;;;;;;;37.08;19.35;101129.88;1742214;81;21199;-65
2021/07/25 09:59:45;;;;;;;3.83;2.50;;;;;;;36.87;19.87;101131.19;1754745;81;21296;-66
2021/07/25 10:02:38;;;;;;;4.00;2.70;;;;;;;36.87;19.58;101130.64;1732747;81;21188;-65
2021/07/25 10:05:19;;;;;;;7.28;2.90;;;;;;;36.74;19.34;101125.85;1745002;81;21189;-64
2021/07/25 10:07:52;;;;;;;5.15;2.60;;;;;;;36.43;19.73;101123.94;1744839;81;21188;-65
2021/07/25 10:10:27;;;;;;;4.83;2.52;;;;;;;36.40;20.26;101127.23;1743618;81;21216;-65
2021/07/25 10:13:00;;;;;;;5.28;2.52;;;;;;;36.42;20.46;101125.02;1740737;81;21151;-65
2021/07/25 10:15:34;;;;;;;4.62;2.62;;;;;;;36.03;21.55;101131.09;1734089;81;21176;-65
2021/07/25 10:18:07;;;;;;;9.70;2.87;;;;;;;35.80;21.75;101123.02;1744243;81;21283;-65
2021/07/25 10:20:41;;;;;;;6.58;2.47;;;;;;;35.78;22.04;101123.86;1734227;81;21187;-65
2021/07/25 10:23:15;;;;;;;4.50;2.92;;;;;;;35.69;21.93;101124.73;1746870;81;21175;-64
2021/07/25 10:25:50;;;;;;;6.92;2.65;;;;;;;35.54;21.66;101124.83;1744012;81;21220;-64
2021/07/25 10:28:23;;;;;;;6.28;2.50;;;;;;;35.37;22.16;101125.16;1736802;81;21157;-64
2021/07/25 10:30:56;;;;;;;3.47;2.90;;;;;;;35.24;21.91;101128.46;1750041;81;21327;-64
2021/07/25 10:33:30;;;;;;;6.28;2.67;;;;;;;35.22;21.76;101127.93;1735136;81;21381;-64
2021/07/25 10:36:05;;;;;;;4.95;2.77;;;;;;;35.08;21.93;101131.80;1741743;81;21290;-64
2021/07/25 10:38:38;;;;;;;4.92;2.85;;;;;;;34.81;22.02;101129.09;1742447;81;21323;-64
2021/07/25 10:41:11;;;;;;;4.33;2.50;;;;;;;34.36;22.30;101134.84;1735088;81;21282;-64
2021/07/25 10:43:45;;;;;;;3.65;2.50;;;;;;;33.99;23.18;101131.50;1734675;81;21267;-64
2021/07/25 10:46:24;;;;;;;;;;;;;;;33.75;23.56;101128.47;1746855;81;21330;-64
2021/07/25 10:49:13;;;;;;;4.92;2.85;;;;;;;33.59;24.21;101128.69;1748361;81;20706;-64
2021/07/25 10:52:01;;;;;;;5.10;2.75;;;;;;;33.48;24.72;101129.19;1743637;81;21147;-64
2021/07/25 10:54:35;;;;;;;8.30;3.10;;;;;;;33.52;24.64;101124.84;1745270;81;21171;-64
2021/07/25 10:57:09;;;;;;;;;;;;;;;33.61;24.10;101125.98;1747860;81;21339;-64
2021/07/25 10:59:50;;;;;;;13.90;2.95;;;;;;;33.69;23.84;101121.94;1756731;81;20267;-64
2021/07/25 11:02:29;;;;;;;6.75;2.72;;;;;;;33.70;24.00;101120.87;1730396;82;21148;-64
2021/07/25 11:05:03;;;;;;;5.25;2.70;;;;;;;33.78;23.83;101118.43;1729787;82;21734;-64
2021/07/25 11:07:38;;;;;;;5.47;2.30;;;;;;;33.85;23.02;101122.23;1729123;82;21208;-64
2021/07/25 11:10:14;;;;;;;8.35;2.58;;;;;;;33.87;22.90;101124.96;1727366;83;21179;-63
2021/07/25 11:12:55;;;;;;;4.75;2.33;;;;;;;33.91;22.50;101118.47;1748002;81;21283;-64
2021/07/25 11:15:36;;;;;;;3.77;2.42;;;;;;;33.97;21.96;101120.09;1756134;81;21232;-64
2021/07/25 11:18:12;;;;;;;4.22;2.70;;;;;;;33.98;21.80;101123.62;1723877;83;21291;-63
2021/07/25 11:21:06;;;;;;;6.58;2.60;;;;;;;33.87;22.75;101119.53;1728678;82;21283;-63
2021/07/25 11:23:35;;;;;;;4.87;2.90;;;;;;;33.83;23.35;101120.34;1729661;82;21232;-63
2021/07/25 11:26:35;;;;;;;6.35;2.50;;;;;;;33.82;23.63;101126.84;1709735;82;21368;-65
2021/07/25 11:29:10;;;;;;;5.12;2.87;;;;;;;33.79;23.59;101124.69;1728943;82;21186;-64
2021/07/25 11:31:45;;;;;;;7.40;2.80;;;;;;;33.56;23.20;101133.29;1729146;82;21767;-64
2021/07/25 11:34:36;;;;;;;4.55;2.70;;;;;;;33.28;23.74;101126.91;1726897;83;21191;-64
2021/07/25 11:37:11;;;;;;;3.45;2.40;;;;;;;33.09;24.47;101123.84;1755582;81;21306;-64
2021/07/25 11:39:45;;;;;;;4.45;2.40;;;;;;;33.02;25.03;101130.05;1753682;81;21303;-64
2021/07/25 11:42:19;;;;;;;5.90;2.58;;;;;;;33.05;24.68;101121.39;1757756;81;21187;-64
2021/07/25 11:44:53;;;;;;;4.95;2.77;;;;;;;33.08;24.34;101113.52;1698342;83;21400;-64
2021/07/25 11:47:28;;;;;;;;;;;;;;;33.05;24.50;101115.96;1728674;82;21189;-64
2021/07/25 11:50:01;;;;;;;5.53;2.67;;;;;;;33.07;24.38;101121.41;1755593;81;20157;-64
2021/07/25 11:52:34;;;;;;;3.50;2.50;;;;;;;33.07;23.82;101122.76;1755074;81;21263;-63
2021/07/25 11:55:08;;;;;;;7.72;2.70;;;;;;;33.06;24.46;101125.19;1729886;82;21187;-64
2021/07/25 11:57:43;;;;;;;5.22;2.87;;;;;;;33.10;24.17;101120.85;1729067;82;21336;-64
2021/07/25 12:00:18;;;;;;;7.30;2.70;;;;;;;33.16;23.67;101118.99;1729241;82;21289;-63
2021/07/25 12:02:56;;;;;;;7.78;2.70;;;;;;;33.19;23.84;101117.11;1698892;83;21255;-63